sensor_id;sensor_type;location;lat;lon;timestamp;temperature;humidity
27368;DHT22;14839;48.106;11.618;2023-07-08T04:01:15;16.50;92.00
27368;DHT22;14839;48.106;11.618;2023-07-08T04:03:42;16.60;92.40
27368;DHT22;14839;48.106;11.618;2023-07-08T04:06:07;16.60;92.60
27368;DHT22;14839;48.106;11.618;2023-07-08T04:08:33;16.60;92.30
27368;DHT22;14839;48.106;11.618;2023-07-08T04:10:58;16.70;91.90
27368;DHT22;14839;48.106;11.618;2023-07-08T04:13:24;16.70;92.00
27368;DHT22;14839;48.106;11.618;2023-07-08T04:15:56;16.70;92.10
27368;DHT22;14839;48.106;11.618;2023-07-08T04:18:22;16.80;91.90
27368;DHT22;14839;48.106;11.618;2023-07-08T04:20:48;16.90;91.60
27368;DHT22;14839;48.106;11.618;2023-07-08T04:23:18;16.90;91.50
27368;DHT22;14839;48.106;11.618;2023-07-08T04:25:44;16.90;91.60
27368;DHT22;14839;48.106;11.618;2023-07-08T04:28:10;16.80;91.80
27368;DHT22;14839;48.106;11.618;2023-07-08T04:30:36;16.90;91.50
27368;DHT22;14839;48.106;11.618;2023-07-08T04:33:11;16.90;91.00
27368;DHT22;14839;48.106;11.618;2023-07-08T04:35:38;16.90;91.30
27368;DHT22;14839;48.106;11.618;2023-07-08T04:38:17;17.00;91.20
27368;DHT22;14839;48.106;11.618;2023-07-08T04:40:43;17.00;91.40
27368;DHT22;14839;48.106;11.618;2023-07-08T04:43:09;17.20;91.10
27368;DHT22;14839;48.106;11.618;2023-07-08T04:45:36;17.20;91.00
27368;DHT22;14839;48.106;11.618;2023-07-08T04:48:03;17.20;91.60
27368;DHT22;14839;48.106;11.618;2023-07-08T04:50:43;17.20;92.20
27368;DHT22;14839;48.106;11.618;2023-07-08T04:53:10;17.30;91.70
27368;DHT22;14839;48.106;11.618;2023-07-08T04:55:42;17.30;91.30
27368;DHT22;14839;48.106;11.618;2023-07-08T04:58:09;17.50;91.00
27368;DHT22;14839;48.106;11.618;2023-07-08T05:00:35;17.50;90.70
27368;DHT22;14839;48.106;11.618;2023-07-08T05:03:01;17.70;90.10
27368;DHT22;14839;48.106;11.618;2023-07-08T05:05:27;17.70;89.60
27368;DHT22;14839;48.106;11.618;2023-07-08T05:07:53;17.70;90.20
27368;DHT22;14839;48.106;11.618;2023-07-08T05:10:19;17.80;90.20
27368;DHT22;14839;48.106;11.618;2023-07-08T05:12:45;17.90;89.60
27368;DHT22;14839;48.106;11.618;2023-07-08T05:15:11;18.00;89.00
27368;DHT22;14839;48.106;11.618;2023-07-08T05:17:38;18.20;88.70
27368;DHT22;14839;48.106;11.618;2023-07-08T05:20:09;18.30;87.80
27368;DHT22;14839;48.106;11.618;2023-07-08T05:22:35;18.50;86.60
27368;DHT22;14839;48.106;11.618;2023-07-08T05:25:01;18.70;86.30
27368;DHT22;14839;48.106;11.618;2023-07-08T05:27:27;18.80;85.30
27368;DHT22;14839;48.106;11.618;2023-07-08T05:29:53;19.00;83.60
27368;DHT22;14839;48.106;11.618;2023-07-08T05:32:19;19.30;83.80
27368;DHT22;14839;48.106;11.618;2023-07-08T05:34:45;19.50;83.80
27368;DHT22;14839;48.106;11.618;2023-07-08T05:37:12;20.00;82.40
27368;DHT22;14839;48.106;11.618;2023-07-08T05:39:38;20.50;80.50
27368;DHT22;14839;48.106;11.618;2023-07-08T05:42:04;20.80;77.50
27368;DHT22;14839;48.106;11.618;2023-07-08T05:44:29;21.40;77.30
27368;DHT22;14839;48.106;11.618;2023-07-08T05:46:55;22.00;73.10
27368;DHT22;14839;48.106;11.618;2023-07-08T05:49:20;22.90;70.30
27368;DHT22;14839;48.106;11.618;2023-07-08T05:51:46;23.50;68.80
27368;DHT22;14839;48.106;11.618;2023-07-08T05:54:13;24.10;67.40
27368;DHT22;14839;48.106;11.618;2023-07-08T05:56:39;24.70;65.60
27368;DHT22;14839;48.106;11.618;2023-07-08T05:59:04;25.40;61.70
27368;DHT22;14839;48.106;11.618;2023-07-08T06:01:30;25.90;60.70
27368;DHT22;14839;48.106;11.618;2023-07-08T06:03:56;26.10;60.10
27368;DHT22;14839;48.106;11.618;2023-07-08T06:06:25;26.30;58.20
27368;DHT22;14839;48.106;11.618;2023-07-08T06:08:51;26.60;58.20
27368;DHT22;14839;48.106;11.618;2023-07-08T06:11:17;26.90;57.80
27368;DHT22;14839;48.106;11.618;2023-07-08T06:13:42;26.90;56.90
27368;DHT22;14839;48.106;11.618;2023-07-08T06:16:08;26.70;56.60
27368;DHT22;14839;48.106;11.618;2023-07-08T06:18:34;25.70;58.70
27368;DHT22;14839;48.106;11.618;2023-07-08T06:21:00;25.30;60.00
27368;DHT22;14839;48.106;11.618;2023-07-08T06:23:27;24.70;64.40
27368;DHT22;14839;48.106;11.618;2023-07-08T06:25:53;25.40;62.30
27368;DHT22;14839;48.106;11.618;2023-07-08T06:28:19;25.80;61.00
27368;DHT22;14839;48.106;11.618;2023-07-08T06:30:45;25.60;61.70
27368;DHT22;14839;48.106;11.618;2023-07-08T06:33:11;25.70;61.00
27368;DHT22;14839;48.106;11.618;2023-07-08T06:35:37;25.80;60.80
27368;DHT22;14839;48.106;11.618;2023-07-08T06:38:04;25.80;61.40
27368;DHT22;14839;48.106;11.618;2023-07-08T06:40:31;26.20;59.80
27368;DHT22;14839;48.106;11.618;2023-07-08T06:42:57;26.50;59.80
27368;DHT22;14839;48.106;11.618;2023-07-08T06:45:24;26.50;59.70
27368;DHT22;14839;48.106;11.618;2023-07-08T06:47:50;26.40;60.80
27368;DHT22;14839;48.106;11.618;2023-07-08T06:50:16;26.70;60.00
27368;DHT22;14839;48.106;11.618;2023-07-08T06:52:41;26.70;59.10
27368;DHT22;14839;48.106;11.618;2023-07-08T06:55:09;26.60;59.50
27368;DHT22;14839;48.106;11.618;2023-07-08T06:57:35;26.10;60.70
27368;DHT22;14839;48.106;11.618;2023-07-08T07:00:05;25.70;62.20
27368;DHT22;14839;48.106;11.618;2023-07-08T07:02:31;25.50;63.20
27368;DHT22;14839;48.106;11.618;2023-07-08T07:04:56;25.40;63.20
27368;DHT22;14839;48.106;11.618;2023-07-08T07:07:22;25.10;65.00
27368;DHT22;14839;48.106;11.618;2023-07-08T07:09:48;24.80;65.60
27368;DHT22;14839;48.106;11.618;2023-07-08T07:12:14;24.60;66.10
27368;DHT22;14839;48.106;11.618;2023-07-08T07:14:39;24.60;66.50
27368;DHT22;14839;48.106;11.618;2023-07-08T07:17:05;24.60;69.20
27368;DHT22;14839;48.106;11.618;2023-07-08T07:19:30;24.50;65.60
27368;DHT22;14839;48.106;11.618;2023-07-08T07:21:56;24.60;66.20
27368;DHT22;14839;48.106;11.618;2023-07-08T07:24:21;24.90;67.40
27368;DHT22;14839;48.106;11.618;2023-07-08T07:26:47;25.30;63.70
27368;DHT22;14839;48.106;11.618;2023-07-08T07:29:16;25.60;63.80
27368;DHT22;14839;48.106;11.618;2023-07-08T07:31:42;25.70;62.60
27368;DHT22;14839;48.106;11.618;2023-07-08T07:34:08;25.50;64.30
27368;DHT22;14839;48.106;11.618;2023-07-08T07:36:34;25.70;65.50
27368;DHT22;14839;48.106;11.618;2023-07-08T07:38:59;25.70;63.20
27368;DHT22;14839;48.106;11.618;2023-07-08T07:41:25;25.50;63.20
27368;DHT22;14839;48.106;11.618;2023-07-08T07:43:50;25.20;64.60
27368;DHT22;14839;48.106;11.618;2023-07-08T07:46:16;25.10;64.10
27368;DHT22;14839;48.106;11.618;2023-07-08T07:48:42;25.00;65.20
27368;DHT22;14839;48.106;11.618;2023-07-08T07:51:08;25.00;65.20
27368;DHT22;14839;48.106;11.618;2023-07-08T07:53:36;24.90;66.50
27368;DHT22;14839;48.106;11.618;2023-07-08T07:56:03;25.10;65.30
27368;DHT22;14839;48.106;11.618;2023-07-08T07:58:29;25.40;65.90
27368;DHT22;14839;48.106;11.618;2023-07-08T08:00:57;25.50;65.50
27368;DHT22;14839;48.106;11.618;2023-07-08T08:03:23;25.70;64.30
27368;DHT22;14839;48.106;11.618;2023-07-08T08:05:49;26.00;65.80
27368;DHT22;14839;48.106;11.618;2023-07-08T08:08:15;26.30;64.00
27368;DHT22;14839;48.106;11.618;2023-07-08T08:10:42;26.40;64.10
27368;DHT22;14839;48.106;11.618;2023-07-08T08:13:07;26.60;62.90
27368;DHT22;14839;48.106;11.618;2023-07-08T08:15:33;26.70;60.80
27368;DHT22;14839;48.106;11.618;2023-07-08T08:17:59;26.50;62.30
27368;DHT22;14839;48.106;11.618;2023-07-08T08:20:25;26.50;61.90
27368;DHT22;14839;48.106;11.618;2023-07-08T08:22:51;26.30;63.20
27368;DHT22;14839;48.106;11.618;2023-07-08T08:25:19;26.30;64.70
27368;DHT22;14839;48.106;11.618;2023-07-08T08:27:45;26.50;63.10
27368;DHT22;14839;48.106;11.618;2023-07-08T08:30:14;26.70;62.60
27368;DHT22;14839;48.106;11.618;2023-07-08T08:32:40;26.60;62.00
27368;DHT22;14839;48.106;11.618;2023-07-08T08:35:05;26.50;64.00
27368;DHT22;14839;48.106;11.618;2023-07-08T08:37:31;26.60;62.30
27368;DHT22;14839;48.106;11.618;2023-07-08T08:39:57;26.60;64.60
27368;DHT22;14839;48.106;11.618;2023-07-08T08:44:55;26.40;65.60
27368;DHT22;14839;48.106;11.618;2023-07-08T08:47:37;26.40;63.50
27368;DHT22;14839;48.106;11.618;2023-07-08T08:50:26;26.60;62.30
27368;DHT22;14839;48.106;11.618;2023-07-08T08:52:54;26.80;62.80
27368;DHT22;14839;48.106;11.618;2023-07-08T08:55:21;27.20;62.30
27368;DHT22;14839;48.106;11.618;2023-07-08T08:58:23;27.40;63.70
27368;DHT22;14839;48.106;11.618;2023-07-08T09:00:58;27.50;60.00
27368;DHT22;14839;48.106;11.618;2023-07-08T09:03:42;27.10;60.10
27368;DHT22;14839;48.106;11.618;2023-07-08T09:06:20;27.00;61.40
27368;DHT22;14839;48.106;11.618;2023-07-08T09:08:49;26.90;61.90
27368;DHT22;14839;48.106;11.618;2023-07-08T09:13:56;27.50;60.10
27368;DHT22;14839;48.106;11.618;2023-07-08T09:16:39;27.80;58.70
27368;DHT22;14839;48.106;11.618;2023-07-08T09:19:33;27.90;56.60
27368;DHT22;14839;48.106;11.618;2023-07-08T09:22:14;27.90;57.90
27368;DHT22;14839;48.106;11.618;2023-07-08T09:27:11;28.00;57.80
27368;DHT22;14839;48.106;11.618;2023-07-08T09:29:37;28.20;56.70
27368;DHT22;14839;48.106;11.618;2023-07-08T09:32:23;28.40;57.60
27368;DHT22;14839;48.106;11.618;2023-07-08T09:34:51;28.60;55.00
27368;DHT22;14839;48.106;11.618;2023-07-08T09:37:28;28.70;55.50
27368;DHT22;14839;48.106;11.618;2023-07-08T09:39:56;28.80;56.00
27368;DHT22;14839;48.106;11.618;2023-07-08T09:42:27;28.90;54.70
27368;DHT22;14839;48.106;11.618;2023-07-08T09:45:02;29.20;54.50
27368;DHT22;14839;48.106;11.618;2023-07-08T09:47:36;29.40;54.10
27368;DHT22;14839;48.106;11.618;2023-07-08T09:50:04;29.40;52.40
27368;DHT22;14839;48.106;11.618;2023-07-08T09:52:41;29.30;53.30
27368;DHT22;14839;48.106;11.618;2023-07-08T09:55:11;29.60;53.50
27368;DHT22;14839;48.106;11.618;2023-07-08T09:57:38;29.80;53.00
27368;DHT22;14839;48.106;11.618;2023-07-08T10:00:13;29.80;52.90
27368;DHT22;14839;48.106;11.618;2023-07-08T10:02:52;29.90;51.70
27368;DHT22;14839;48.106;11.618;2023-07-08T10:05:25;30.10;53.60
27368;DHT22;14839;48.106;11.618;2023-07-08T10:07:55;30.50;51.70
27368;DHT22;14839;48.106;11.618;2023-07-08T10:10:37;30.90;52.40
27368;DHT22;14839;48.106;11.618;2023-07-08T10:13:24;31.20;49.80
27368;DHT22;14839;48.106;11.618;2023-07-08T10:16:14;31.30;48.00
27368;DHT22;14839;48.106;11.618;2023-07-08T10:18:40;31.10;49.20
27368;DHT22;14839;48.106;11.618;2023-07-08T10:26:31;31.10;49.60
27368;DHT22;14839;48.106;11.618;2023-07-08T10:29:23;31.20;48.50
27368;DHT22;14839;48.106;11.618;2023-07-08T10:32:17;31.20;47.00
27368;DHT22;14839;48.106;11.618;2023-07-08T10:40:27;31.30;48.50
27368;DHT22;14839;48.106;11.618;2023-07-08T10:48:56;31.30;47.40
27368;DHT22;14839;48.106;11.618;2023-07-08T10:57:21;31.00;48.60
27368;DHT22;14839;48.106;11.618;2023-07-08T11:00:03;31.00;47.10
27368;DHT22;14839;48.106;11.618;2023-07-08T11:11:06;30.80;46.20
27368;DHT22;14839;48.106;11.618;2023-07-08T11:13:36;30.80;47.70
27368;DHT22;14839;48.106;11.618;2023-07-08T11:16:10;31.10;47.00
27368;DHT22;14839;48.106;11.618;2023-07-08T11:18:46;31.30;47.60
27368;DHT22;14839;48.106;11.618;2023-07-08T11:21:26;31.10;47.30
27368;DHT22;14839;48.106;11.618;2023-07-08T11:24:14;30.20;47.90
27368;DHT22;14839;48.106;11.618;2023-07-08T11:26:54;30.30;49.30
27368;DHT22;14839;48.106;11.618;2023-07-08T11:29:32;30.60;47.40
27368;DHT22;14839;48.106;11.618;2023-07-08T11:32:00;30.80;47.70
27368;DHT22;14839;48.106;11.618;2023-07-08T11:34:28;30.90;46.50
27368;DHT22;14839;48.106;11.618;2023-07-08T11:36:55;31.00;47.10
27368;DHT22;14839;48.106;11.618;2023-07-08T11:39:42;31.20;46.80
27368;DHT22;14839;48.106;11.618;2023-07-08T11:42:42;31.20;47.30
27368;DHT22;14839;48.106;11.618;2023-07-08T11:45:36;30.90;46.80
27368;DHT22;14839;48.106;11.618;2023-07-08T11:48:23;29.70;47.90
27368;DHT22;14839;48.106;11.618;2023-07-08T11:50:51;29.80;47.10
27368;DHT22;14839;48.106;11.618;2023-07-08T11:58:51;30.30;46.20
27368;DHT22;14839;48.106;11.618;2023-07-08T12:04:01;30.00;46.50
27368;DHT22;14839;48.106;11.618;2023-07-08T12:09:25;30.60;46.70
27368;DHT22;14839;48.106;11.618;2023-07-08T12:11:56;30.80;45.50
27368;DHT22;14839;48.106;11.618;2023-07-08T12:14:25;30.50;43.90
27368;DHT22;14839;48.106;11.618;2023-07-08T12:16:52;30.50;46.40
27368;DHT22;14839;48.106;11.618;2023-07-08T12:19:18;30.50;45.40
27368;DHT22;14839;48.106;11.618;2023-07-08T12:21:46;30.40;46.10
27368;DHT22;14839;48.106;11.618;2023-07-08T12:24:13;30.60;44.80
27368;DHT22;14839;48.106;11.618;2023-07-08T12:26:39;30.70;43.00
27368;DHT22;14839;48.106;11.618;2023-07-08T12:29:05;30.80;44.20
27368;DHT22;14839;48.106;11.618;2023-07-08T12:31:31;31.00;43.70
27368;DHT22;14839;48.106;11.618;2023-07-08T12:33:58;31.20;44.20
27368;DHT22;14839;48.106;11.618;2023-07-08T12:36:29;31.50;43.60
27368;DHT22;14839;48.106;11.618;2023-07-08T12:38:59;31.60;42.10
27368;DHT22;14839;48.106;11.618;2023-07-08T12:41:29;31.80;42.20
27368;DHT22;14839;48.106;11.618;2023-07-08T12:43:55;31.90;42.00
27368;DHT22;14839;48.106;11.618;2023-07-08T12:46:22;32.00;40.00
27368;DHT22;14839;48.106;11.618;2023-07-08T12:48:48;32.10;41.10
27368;DHT22;14839;48.106;11.618;2023-07-08T12:51:20;32.20;39.10
27368;DHT22;14839;48.106;11.618;2023-07-08T12:53:46;32.20;39.40
27368;DHT22;14839;48.106;11.618;2023-07-08T12:56:12;31.60;37.10
27368;DHT22;14839;48.106;11.618;2023-07-08T12:58:40;30.80;39.60
27368;DHT22;14839;48.106;11.618;2023-07-08T13:01:07;30.90;39.70
27368;DHT22;14839;48.106;11.618;2023-07-08T13:03:37;31.00;39.30
27368;DHT22;14839;48.106;11.618;2023-07-08T13:06:07;31.20;39.30
27368;DHT22;14839;48.106;11.618;2023-07-08T13:08:36;31.40;38.30
27368;DHT22;14839;48.106;11.618;2023-07-08T13:11:03;31.40;37.20
27368;DHT22;14839;48.106;11.618;2023-07-08T13:13:35;31.50;37.80
27368;DHT22;14839;48.106;11.618;2023-07-08T13:16:03;31.60;38.30
27368;DHT22;14839;48.106;11.618;2023-07-08T13:18:38;31.70;39.30
27368;DHT22;14839;48.106;11.618;2023-07-08T13:21:07;31.60;38.30
27368;DHT22;14839;48.106;11.618;2023-07-08T13:23:34;31.30;39.10
27368;DHT22;14839;48.106;11.618;2023-07-08T13:26:00;30.90;40.30
27368;DHT22;14839;48.106;11.618;2023-07-08T13:28:29;30.80;42.00
27368;DHT22;14839;48.106;11.618;2023-07-08T13:30:57;30.70;41.80
27368;DHT22;14839;48.106;11.618;2023-07-08T13:33:28;30.70;41.70
27368;DHT22;14839;48.106;11.618;2023-07-08T13:35:54;30.00;41.50
27368;DHT22;14839;48.106;11.618;2023-07-08T13:38:23;30.10;43.10
27368;DHT22;14839;48.106;11.618;2023-07-08T13:40:54;30.30;43.00
27368;DHT22;14839;48.106;11.618;2023-07-08T13:43:28;30.10;43.30
27368;DHT22;14839;48.106;11.618;2023-07-08T13:45:54;29.80;42.10
27368;DHT22;14839;48.106;11.618;2023-07-08T13:48:28;29.60;41.70
27368;DHT22;14839;48.106;11.618;2023-07-08T13:51:01;29.70;41.80
27368;DHT22;14839;48.106;11.618;2023-07-08T13:56:03;29.80;40.20
27368;DHT22;14839;48.106;11.618;2023-07-08T13:58:30;29.90;41.50
27368;DHT22;14839;48.106;11.618;2023-07-08T14:00:56;30.00;42.20
27368;DHT22;14839;48.106;11.618;2023-07-08T14:03:22;30.20;39.70
27368;DHT22;14839;48.106;11.618;2023-07-08T14:05:49;30.30;40.90
27368;DHT22;14839;48.106;11.618;2023-07-08T14:08:16;30.40;42.50
27368;DHT22;14839;48.106;11.618;2023-07-08T14:10:43;30.50;39.90
27368;DHT22;14839;48.106;11.618;2023-07-08T14:13:10;30.60;40.90
27368;DHT22;14839;48.106;11.618;2023-07-08T14:15:37;30.60;43.00
27368;DHT22;14839;48.106;11.618;2023-07-08T14:18:04;30.70;43.30
27368;DHT22;14839;48.106;11.618;2023-07-08T14:20:30;30.50;43.40
27368;DHT22;14839;48.106;11.618;2023-07-08T14:22:56;30.30;42.70
27368;DHT22;14839;48.106;11.618;2023-07-08T14:25:22;30.10;42.00
27368;DHT22;14839;48.106;11.618;2023-07-08T14:27:50;30.00;42.00
27368;DHT22;14839;48.106;11.618;2023-07-08T14:30:16;29.40;41.50
27368;DHT22;14839;48.106;11.618;2023-07-08T14:32:41;29.30;43.00
27368;DHT22;14839;48.106;11.618;2023-07-08T14:35:22;29.40;44.20
27368;DHT22;14839;48.106;11.618;2023-07-08T14:37:48;29.40;43.30
27368;DHT22;14839;48.106;11.618;2023-07-08T14:40:24;29.40;42.20
27368;DHT22;14839;48.106;11.618;2023-07-08T14:43:02;29.20;44.00
27368;DHT22;14839;48.106;11.618;2023-07-08T14:45:29;29.20;44.00
27368;DHT22;14839;48.106;11.618;2023-07-08T14:47:57;29.20;43.10
27368;DHT22;14839;48.106;11.618;2023-07-08T14:50:23;29.20;42.80
27368;DHT22;14839;48.106;11.618;2023-07-08T14:52:52;29.10;43.30
27368;DHT22;14839;48.106;11.618;2023-07-08T14:55:17;29.10;43.60
27368;DHT22;14839;48.106;11.618;2023-07-08T14:57:45;29.20;44.80
27368;DHT22;14839;48.106;11.618;2023-07-08T15:00:14;29.30;45.40
27368;DHT22;14839;48.106;11.618;2023-07-08T15:02:42;29.30;45.50
27368;DHT22;14839;48.106;11.618;2023-07-08T15:05:23;29.40;45.50
27368;DHT22;14839;48.106;11.618;2023-07-08T15:07:53;29.30;43.60
27368;DHT22;14839;48.106;11.618;2023-07-08T15:10:21;29.40;43.90
27368;DHT22;14839;48.106;11.618;2023-07-08T15:28:15;29.50;44.60
27368;DHT22;14839;48.106;11.618;2023-07-08T15:30:42;29.80;43.40
27368;DHT22;14839;48.106;11.618;2023-07-08T15:33:09;29.90;42.70
27368;DHT22;14839;48.106;11.618;2023-07-08T15:35:34;30.00;42.10
27368;DHT22;14839;48.106;11.618;2023-07-08T15:38:00;29.90;42.50
27368;DHT22;14839;48.106;11.618;2023-07-08T15:40:32;29.80;41.40
27368;DHT22;14839;48.106;11.618;2023-07-08T15:42:59;29.60;43.00
27368;DHT22;14839;48.106;11.618;2023-07-08T15:45:29;29.70;43.00
27368;DHT22;14839;48.106;11.618;2023-07-08T15:47:55;29.70;43.70
27368;DHT22;14839;48.106;11.618;2023-07-08T15:50:24;29.60;44.80
27368;DHT22;14839;48.106;11.618;2023-07-08T15:52:50;29.60;42.40
27368;DHT22;14839;48.106;11.618;2023-07-08T15:55:24;29.60;42.20
27368;DHT22;14839;48.106;11.618;2023-07-08T15:57:53;29.70;41.10
27368;DHT22;14839;48.106;11.618;2023-07-08T16:00:23;29.70;40.90
27368;DHT22;14839;48.106;11.618;2023-07-08T16:02:51;29.70;40.90
27368;DHT22;14839;48.106;11.618;2023-07-08T16:05:18;29.60;42.10
27368;DHT22;14839;48.106;11.618;2023-07-08T16:07:45;29.50;42.10
27368;DHT22;14839;48.106;11.618;2023-07-08T16:10:11;29.50;42.00
27368;DHT22;14839;48.106;11.618;2023-07-08T16:12:37;29.60;41.40
27368;DHT22;14839;48.106;11.618;2023-07-08T16:15:03;29.60;42.10
27368;DHT22;14839;48.106;11.618;2023-07-08T16:17:33;29.70;41.70
27368;DHT22;14839;48.106;11.618;2023-07-08T16:20:00;29.80;40.20
27368;DHT22;14839;48.106;11.618;2023-07-08T16:22:26;29.80;40.00
27368;DHT22;14839;48.106;11.618;2023-07-08T16:24:51;29.60;40.00
27368;DHT22;14839;48.106;11.618;2023-07-08T16:27:17;29.40;41.10
27368;DHT22;14839;48.106;11.618;2023-07-08T16:29:43;29.30;41.80
27368;DHT22;14839;48.106;11.618;2023-07-08T16:32:11;29.20;42.10
27368;DHT22;14839;48.106;11.618;2023-07-08T16:34:38;29.20;41.80
27368;DHT22;14839;48.106;11.618;2023-07-08T16:37:03;29.10;41.80
27368;DHT22;14839;48.106;11.618;2023-07-08T16:39:29;29.10;40.90
27368;DHT22;14839;48.106;11.618;2023-07-08T16:41:54;29.10;40.30
27368;DHT22;14839;48.106;11.618;2023-07-08T16:44:21;29.10;40.20
27368;DHT22;14839;48.106;11.618;2023-07-08T16:46:47;29.10;40.20
27368;DHT22;14839;48.106;11.618;2023-07-08T16:49:13;29.10;40.30
27368;DHT22;14839;48.106;11.618;2023-07-08T16:51:40;29.20;39.40
27368;DHT22;14839;48.106;11.618;2023-07-08T16:54:15;29.20;39.10
27368;DHT22;14839;48.106;11.618;2023-07-08T16:56:43;29.10;40.30
27368;DHT22;14839;48.106;11.618;2023-07-08T16:59:11;29.10;40.00
27368;DHT22;14839;48.106;11.618;2023-07-08T17:01:36;29.10;41.10
27368;DHT22;14839;48.106;11.618;2023-07-08T17:04:02;29.10;40.50
27368;DHT22;14839;48.106;11.618;2023-07-08T17:06:28;29.00;39.90
27368;DHT22;14839;48.106;11.618;2023-07-08T17:08:53;28.90;40.80
27368;DHT22;14839;48.106;11.618;2023-07-08T17:11:19;28.80;40.20
27368;DHT22;14839;48.106;11.618;2023-07-08T17:13:44;28.80;41.20
27368;DHT22;14839;48.106;11.618;2023-07-08T17:16:27;28.80;42.00
27368;DHT22;14839;48.106;11.618;2023-07-08T17:18:54;28.70;40.00
27368;DHT22;14839;48.106;11.618;2023-07-08T17:21:21;28.80;39.10
27368;DHT22;14839;48.106;11.618;2023-07-08T17:23:46;28.80;39.60
27368;DHT22;14839;48.106;11.618;2023-07-08T17:26:12;28.80;39.10
27368;DHT22;14839;48.106;11.618;2023-07-08T17:28:37;28.80;39.60
27368;DHT22;14839;48.106;11.618;2023-07-08T17:31:04;28.80;41.40
27368;DHT22;14839;48.106;11.618;2023-07-08T17:33:30;28.80;40.20
27368;DHT22;14839;48.106;11.618;2023-07-08T17:35:56;28.80;40.90
27368;DHT22;14839;48.106;11.618;2023-07-08T17:38:42;28.70;39.60
27368;DHT22;14839;48.106;11.618;2023-07-08T17:41:11;28.70;40.30
27368;DHT22;14839;48.106;11.618;2023-07-08T17:43:37;28.70;40.30
27368;DHT22;14839;48.106;11.618;2023-07-08T17:46:04;28.60;40.60
27368;DHT22;14839;48.106;11.618;2023-07-08T17:48:30;28.60;40.90
27368;DHT22;14839;48.106;11.618;2023-07-08T17:50:56;28.60;41.70
27368;DHT22;14839;48.106;11.618;2023-07-08T17:53:21;28.60;41.10
27368;DHT22;14839;48.106;11.618;2023-07-08T17:55:50;28.50;41.20
27368;DHT22;14839;48.106;11.618;2023-07-08T17:58:16;28.50;41.70
27368;DHT22;14839;48.106;11.618;2023-07-08T18:00:43;28.50;42.40
27368;DHT22;14839;48.106;11.618;2023-07-08T18:03:11;28.40;43.30
27368;DHT22;14839;48.106;11.618;2023-07-08T18:05:37;28.30;44.50
27368;DHT22;14839;48.106;11.618;2023-07-08T18:08:05;28.20;44.60
27368;DHT22;14839;48.106;11.618;2023-07-08T18:13:29;28.00;45.80
27368;DHT22;14839;48.106;11.618;2023-07-08T18:15:59;27.90;45.40
27368;DHT22;14839;48.106;11.618;2023-07-08T18:18:25;27.80;44.80
27368;DHT22;14839;48.106;11.618;2023-07-08T18:20:52;27.70;45.60
27368;DHT22;14839;48.106;11.618;2023-07-08T18:23:23;27.60;45.80
27368;DHT22;14839;48.106;11.618;2023-07-08T18:25:49;27.60;46.20
27368;DHT22;14839;48.106;11.618;2023-07-08T18:28:15;27.50;46.80
27368;DHT22;14839;48.106;11.618;2023-07-08T18:30:42;27.40;47.00
27368;DHT22;14839;48.106;11.618;2023-07-08T18:33:16;27.30;46.70
27368;DHT22;14839;48.106;11.618;2023-07-08T18:35:43;27.20;46.50
27368;DHT22;14839;48.106;11.618;2023-07-08T18:38:09;27.20;47.00
27368;DHT22;14839;48.106;11.618;2023-07-08T18:40:38;27.10;48.00
27368;DHT22;14839;48.106;11.618;2023-07-08T18:43:25;27.10;48.50
27368;DHT22;14839;48.106;11.618;2023-07-08T18:45:52;27.00;48.30
27368;DHT22;14839;48.106;11.618;2023-07-08T18:48:20;26.90;49.60
27368;DHT22;14839;48.106;11.618;2023-07-08T18:50:55;26.90;49.80
27368;DHT22;14839;48.106;11.618;2023-07-08T18:53:23;26.80;50.10
27368;DHT22;14839;48.106;11.618;2023-07-08T18:55:49;26.70;50.40
27368;DHT22;14839;48.106;11.618;2023-07-08T18:58:19;26.60;51.10
27368;DHT22;14839;48.106;11.618;2023-07-08T19:00:45;26.40;51.90
27368;DHT22;14839;48.106;11.618;2023-07-08T19:03:28;26.30;52.90
27368;DHT22;14839;48.106;11.618;2023-07-08T19:05:55;26.10;54.40
27368;DHT22;14839;48.106;11.618;2023-07-08T19:08:21;25.90;55.30
27368;DHT22;14839;48.106;11.618;2023-07-08T19:10:49;25.80;55.10
27368;DHT22;14839;48.106;11.618;2023-07-08T19:13:20;25.70;55.70
27368;DHT22;14839;48.106;11.618;2023-07-08T19:15:46;25.50;56.90
27368;DHT22;14839;48.106;11.618;2023-07-08T19:18:12;25.30;58.50
27368;DHT22;14839;48.106;11.618;2023-07-08T19:20:41;25.20;58.90
27368;DHT22;14839;48.106;11.618;2023-07-08T19:23:16;25.00;59.50
27368;DHT22;14839;48.106;11.618;2023-07-08T19:25:43;24.90;60.40
27368;DHT22;14839;48.106;11.618;2023-07-08T19:28:09;24.70;60.10
27368;DHT22;14839;48.106;11.618;2023-07-08T19:30:36;24.60;61.10
27368;DHT22;14839;48.106;11.618;2023-07-08T19:33:03;24.60;61.30
27368;DHT22;14839;48.106;11.618;2023-07-08T19:35:39;24.60;61.10
27368;DHT22;14839;48.106;11.618;2023-07-08T19:38:06;24.50;62.20
27368;DHT22;14839;48.106;11.618;2023-07-08T19:40:32;24.40;62.00
27368;DHT22;14839;48.106;11.618;2023-07-08T19:42:58;24.40;61.70
27368;DHT22;14839;48.106;11.618;2023-07-08T19:45:26;24.40;61.10
27368;DHT22;14839;48.106;11.618;2023-07-08T19:47:53;24.40;61.30
27368;DHT22;14839;48.106;11.618;2023-07-08T19:50:21;24.50;61.70
27368;DHT22;14839;48.106;11.618;2023-07-08T19:52:47;24.60;61.90
27368;DHT22;14839;48.106;11.618;2023-07-08T19:55:14;24.60;62.30
27368;DHT22;14839;48.106;11.618;2023-07-08T19:57:48;24.60;63.20
27368;DHT22;14839;48.106;11.618;2023-07-08T20:00:29;24.50;64.00
27368;DHT22;14839;48.106;11.618;2023-07-08T20:02:56;24.40;64.30
27368;DHT22;14839;48.106;11.618;2023-07-08T20:05:28;24.20;64.90
27368;DHT22;14839;48.106;11.618;2023-07-08T20:08:00;24.10;65.30
27368;DHT22;14839;48.106;11.618;2023-07-08T20:10:27;24.00;66.80
27368;DHT22;14839;48.106;11.618;2023-07-08T20:12:53;23.90;67.30
27368;DHT22;14839;48.106;11.618;2023-07-08T20:15:22;23.80;67.90
27368;DHT22;14839;48.106;11.618;2023-07-08T20:17:48;23.70;69.50
27368;DHT22;14839;48.106;11.618;2023-07-08T20:20:22;23.60;69.50
27368;DHT22;14839;48.106;11.618;2023-07-08T20:22:49;23.50;70.60
27368;DHT22;14839;48.106;11.618;2023-07-08T20:25:15;23.40;69.50
27368;DHT22;14839;48.106;11.618;2023-07-08T20:27:42;23.30;70.70
27368;DHT22;14839;48.106;11.618;2023-07-08T20:30:22;23.20;70.40
27368;DHT22;14839;48.106;11.618;2023-07-08T20:32:49;23.20;70.70
27368;DHT22;14839;48.106;11.618;2023-07-08T20:35:16;23.10;71.20
27368;DHT22;14839;48.106;11.618;2023-07-08T20:37:43;23.10;71.20